sensor_id;sensor_type;location;lat;lon;timestamp;P1;durP1;ratioP1;P2;durP2;ratioP2
15061;SDS011;7630;50.306;8.566;2022-12-28T00:02:36;23.83;;;21.60;;
15061;SDS011;7630;50.306;8.566;2022-12-28T00:06:37;25.47;;;20.13;;
15061;SDS011;7630;50.306;8.566;2022-12-28T00:10:38;26.23;;;21.43;;
15061;SDS011;7630;50.306;8.566;2022-12-28T00:14:41;27.10;;;23.03;;
15061;SDS011;7630;50.306;8.566;2022-12-28T00:18:44;27.17;;;21.70;;
15061;SDS011;7630;50.306;8.566;2022-12-28T00:22:45;17.00;;;14.00;;
15061;SDS011;7630;50.306;8.566;2022-12-28T00:26:46;17.90;;;8.63;;
15061;SDS011;7630;50.306;8.566;2022-12-28T00:30:48;9.63;;;8.53;;
15061;SDS011;7630;50.306;8.566;2022-12-28T00:34:49;8.60;;;7.70;;
15061;SDS011;7630;50.306;8.566;2022-12-28T00:38:50;8.73;;;7.27;;
15061;SDS011;7630;50.306;8.566;2022-12-28T00:42:51;8.93;;;7.53;;
15061;SDS011;7630;50.306;8.566;2022-12-28T00:46:52;9.00;;;7.23;;
15061;SDS011;7630;50.306;8.566;2022-12-28T00:51:03;13.10;;;7.67;;
15061;SDS011;7630;50.306;8.566;2022-12-28T00:55:04;7.97;;;7.17;;
15061;SDS011;7630;50.306;8.566;2022-12-28T00:59:05;8.20;;;7.50;;
15061;SDS011;7630;50.306;8.566;2022-12-28T01:03:07;8.70;;;7.90;;
15061;SDS011;7630;50.306;8.566;2022-12-28T01:07:08;14.10;;;11.57;;
15061;SDS011;7630;50.306;8.566;2022-12-28T01:11:10;14.83;;;13.23;;
15061;SDS011;7630;50.306;8.566;2022-12-28T01:15:13;16.10;;;14.23;;
15061;SDS011;7630;50.306;8.566;2022-12-28T01:19:16;18.80;;;16.90;;
15061;SDS011;7630;50.306;8.566;2022-12-28T01:23:19;21.93;;;17.77;;
15061;SDS011;7630;50.306;8.566;2022-12-28T01:27:20;23.60;;;18.00;;
15061;SDS011;7630;50.306;8.566;2022-12-28T01:31:21;18.77;;;16.87;;
15061;SDS011;7630;50.306;8.566;2022-12-28T01:35:23;22.30;;;16.47;;
15061;SDS011;7630;50.306;8.566;2022-12-28T01:39:24;20.63;;;17.43;;
15061;SDS011;7630;50.306;8.566;2022-12-28T01:43:36;21.40;;;17.27;;
15061;SDS011;7630;50.306;8.566;2022-12-28T01:47:45;24.03;;;18.53;;
15061;SDS011;7630;50.306;8.566;2022-12-28T01:56:01;15.23;;;13.73;;
15061;SDS011;7630;50.306;8.566;2022-12-28T02:00:09;14.40;;;13.00;;
15061;SDS011;7630;50.306;8.566;2022-12-28T02:04:09;12.73;;;11.40;;
15061;SDS011;7630;50.306;8.566;2022-12-28T02:12:35;16.37;;;13.27;;
15061;SDS011;7630;50.306;8.566;2022-12-28T02:16:36;16.60;;;13.73;;
15061;SDS011;7630;50.306;8.566;2022-12-28T02:20:40;15.30;;;11.97;;
15061;SDS011;7630;50.306;8.566;2022-12-28T02:33:37;12.97;;;11.67;;
15061;SDS011;7630;50.306;8.566;2022-12-28T02:37:46;12.10;;;10.90;;
15061;SDS011;7630;50.306;8.566;2022-12-28T02:41:55;13.73;;;11.73;;
15061;SDS011;7630;50.306;8.566;2022-12-28T02:46:07;17.53;;;14.63;;
15061;SDS011;7630;50.306;8.566;2022-12-28T02:50:36;13.37;;;10.30;;
15061;SDS011;7630;50.306;8.566;2022-12-28T02:54:45;15.97;;;14.13;;
15061;SDS011;7630;50.306;8.566;2022-12-28T03:07:51;12.20;;;11.07;;
15061;SDS011;7630;50.306;8.566;2022-12-28T03:12:21;16.53;;;13.63;;
15061;SDS011;7630;50.306;8.566;2022-12-28T03:16:27;16.30;;;14.63;;
15061;SDS011;7630;50.306;8.566;2022-12-28T03:20:31;12.87;;;11.37;;
15061;SDS011;7630;50.306;8.566;2022-12-28T03:24:50;12.20;;;10.27;;
15061;SDS011;7630;50.306;8.566;2022-12-28T03:29:10;14.37;;;12.87;;
15061;SDS011;7630;50.306;8.566;2022-12-28T03:33:38;18.13;;;16.20;;
15061;SDS011;7630;50.306;8.566;2022-12-28T03:37:55;19.47;;;17.57;;
15061;SDS011;7630;50.306;8.566;2022-12-28T03:41:59;23.87;;;18.43;;
15061;SDS011;7630;50.306;8.566;2022-12-28T03:50:34;24.30;;;21.77;;
15061;SDS011;7630;50.306;8.566;2022-12-28T03:54:35;21.20;;;19.10;;
15061;SDS011;7630;50.306;8.566;2022-12-28T03:58:36;27.33;;;22.30;;
15061;SDS011;7630;50.306;8.566;2022-12-28T04:02:37;24.90;;;22.30;;
15061;SDS011;7630;50.306;8.566;2022-12-28T04:06:39;28.47;;;23.90;;
15061;SDS011;7630;50.306;8.566;2022-12-28T04:10:40;27.17;;;23.90;;
15061;SDS011;7630;50.306;8.566;2022-12-28T04:14:41;31.57;;;28.50;;
15061;SDS011;7630;50.306;8.566;2022-12-28T04:18:42;31.43;;;28.23;;
15061;SDS011;7630;50.306;8.566;2022-12-28T04:22:44;31.53;;;28.10;;
15061;SDS011;7630;50.306;8.566;2022-12-28T04:26:45;34.03;;;30.47;;
15061;SDS011;7630;50.306;8.566;2022-12-28T04:30:46;31.93;;;28.77;;
15061;SDS011;7630;50.306;8.566;2022-12-28T04:34:47;34.00;;;30.40;;
15061;SDS011;7630;50.306;8.566;2022-12-28T04:38:49;31.43;;;28.27;;
15061;SDS011;7630;50.306;8.566;2022-12-28T04:42:50;33.37;;;29.73;;
15061;SDS011;7630;50.306;8.566;2022-12-28T04:46:51;39.37;;;32.07;;
15061;SDS011;7630;50.306;8.566;2022-12-28T04:50:53;34.73;;;31.30;;
15061;SDS011;7630;50.306;8.566;2022-12-28T04:54:54;33.27;;;29.70;;
15061;SDS011;7630;50.306;8.566;2022-12-28T04:58:58;37.47;;;33.53;;
15061;SDS011;7630;50.306;8.566;2022-12-28T05:02:59;34.97;;;31.27;;
15061;SDS011;7630;50.306;8.566;2022-12-28T05:07:01;35.83;;;31.77;;
15061;SDS011;7630;50.306;8.566;2022-12-28T05:11:03;34.73;;;31.20;;
15061;SDS011;7630;50.306;8.566;2022-12-28T05:15:06;33.67;;;30.17;;
15061;SDS011;7630;50.306;8.566;2022-12-28T05:19:08;34.77;;;31.27;;
15061;SDS011;7630;50.306;8.566;2022-12-28T05:23:09;33.27;;;29.50;;
15061;SDS011;7630;50.306;8.566;2022-12-28T05:27:10;32.73;;;29.43;;
15061;SDS011;7630;50.306;8.566;2022-12-28T05:31:12;34.87;;;30.23;;
15061;SDS011;7630;50.306;8.566;2022-12-28T05:35:14;33.53;;;30.33;;
15061;SDS011;7630;50.306;8.566;2022-12-28T05:39:15;33.07;;;29.70;;
15061;SDS011;7630;50.306;8.566;2022-12-28T05:43:16;30.30;;;27.30;;
15061;SDS011;7630;50.306;8.566;2022-12-28T05:47:17;30.57;;;27.53;;
15061;SDS011;7630;50.306;8.566;2022-12-28T05:51:19;30.50;;;27.43;;
15061;SDS011;7630;50.306;8.566;2022-12-28T05:55:22;30.63;;;27.40;;
15061;SDS011;7630;50.306;8.566;2022-12-28T05:59:23;30.17;;;27.58;;
15061;SDS011;7630;50.306;8.566;2022-12-28T06:03:24;29.10;;;26.47;;
15061;SDS011;7630;50.306;8.566;2022-12-28T06:07:25;27.70;;;24.90;;
15061;SDS011;7630;50.306;8.566;2022-12-28T06:11:26;28.13;;;25.33;;
15061;SDS011;7630;50.306;8.566;2022-12-28T06:15:28;27.93;;;24.60;;
15061;SDS011;7630;50.306;8.566;2022-12-28T06:19:29;31.95;;;28.87;;
15061;SDS011;7630;50.306;8.566;2022-12-28T06:23:31;28.90;;;26.10;;
15061;SDS011;7630;50.306;8.566;2022-12-28T06:27:32;25.67;;;23.13;;
15061;SDS011;7630;50.306;8.566;2022-12-28T06:31:34;25.27;;;22.97;;
15061;SDS011;7630;50.306;8.566;2022-12-28T06:35:41;25.33;;;22.47;;
15061;SDS011;7630;50.306;8.566;2022-12-28T06:39:42;24.13;;;22.03;;
15061;SDS011;7630;50.306;8.566;2022-12-28T06:43:43;24.50;;;22.27;;
15061;SDS011;7630;50.306;8.566;2022-12-28T06:47:45;27.60;;;25.13;;
15061;SDS011;7630;50.306;8.566;2022-12-28T06:51:46;25.00;;;22.57;;
15061;SDS011;7630;50.306;8.566;2022-12-28T06:55:51;24.23;;;22.03;;
15061;SDS011;7630;50.306;8.566;2022-12-28T06:59:59;25.40;;;23.00;;
15061;SDS011;7630;50.306;8.566;2022-12-28T07:04:01;26.07;;;23.73;;
15061;SDS011;7630;50.306;8.566;2022-12-28T07:08:03;22.97;;;20.53;;
15061;SDS011;7630;50.306;8.566;2022-12-28T07:12:06;22.47;;;20.27;;
15061;SDS011;7630;50.306;8.566;2022-12-28T07:16:11;21.70;;;19.73;;
15061;SDS011;7630;50.306;8.566;2022-12-28T07:20:14;20.83;;;18.97;;
15061;SDS011;7630;50.306;8.566;2022-12-28T07:24:15;22.63;;;20.30;;
15061;SDS011;7630;50.306;8.566;2022-12-28T07:28:16;15.33;;;13.87;;
15061;SDS011;7630;50.306;8.566;2022-12-28T07:32:18;23.80;;;19.60;;
15061;SDS011;7630;50.306;8.566;2022-12-28T07:36:19;17.50;;;15.73;;
15061;SDS011;7630;50.306;8.566;2022-12-28T07:40:21;19.93;;;18.03;;
15061;SDS011;7630;50.306;8.566;2022-12-28T07:44:22;19.80;;;17.17;;
15061;SDS011;7630;50.306;8.566;2022-12-28T07:48:25;14.17;;;12.77;;
15061;SDS011;7630;50.306;8.566;2022-12-28T07:52:29;14.60;;;13.27;;
15061;SDS011;7630;50.306;8.566;2022-12-28T07:56:30;13.90;;;12.73;;
15061;SDS011;7630;50.306;8.566;2022-12-28T08:00:34;12.93;;;11.60;;
15061;SDS011;7630;50.306;8.566;2022-12-28T08:04:36;12.90;;;11.80;;
15061;SDS011;7630;50.306;8.566;2022-12-28T08:08:38;11.20;;;10.30;;
15061;SDS011;7630;50.306;8.566;2022-12-28T08:12:41;7.70;;;7.10;;
15061;SDS011;7630;50.306;8.566;2022-12-28T08:16:43;8.17;;;6.93;;
15061;SDS011;7630;50.306;8.566;2022-12-28T08:20:47;9.73;;;8.73;;
15061;SDS011;7630;50.306;8.566;2022-12-28T08:24:48;12.57;;;10.40;;
15061;SDS011;7630;50.306;8.566;2022-12-28T08:28:51;10.83;;;9.93;;
15061;SDS011;7630;50.306;8.566;2022-12-28T08:32:53;11.43;;;9.43;;
15061;SDS011;7630;50.306;8.566;2022-12-28T08:36:55;9.10;;;7.90;;
15061;SDS011;7630;50.306;8.566;2022-12-28T08:40:56;11.97;;;7.70;;
15061;SDS011;7630;50.306;8.566;2022-12-28T08:44:59;9.00;;;7.90;;
15061;SDS011;7630;50.306;8.566;2022-12-28T08:49:00;10.00;;;9.30;;
15061;SDS011;7630;50.306;8.566;2022-12-28T08:53:02;8.30;;;7.40;;
15061;SDS011;7630;50.306;8.566;2022-12-28T08:57:03;9.50;;;7.67;;
15061;SDS011;7630;50.306;8.566;2022-12-28T09:05:18;7.43;;;6.67;;
15061;SDS011;7630;50.306;8.566;2022-12-28T09:09:21;8.30;;;7.50;;
15061;SDS011;7630;50.306;8.566;2022-12-28T09:13:22;8.40;;;7.33;;
15061;SDS011;7630;50.306;8.566;2022-12-28T09:17:23;8.10;;;7.30;;
15061;SDS011;7630;50.306;8.566;2022-12-28T09:21:26;8.00;;;7.40;;
15061;SDS011;7630;50.306;8.566;2022-12-28T09:25:29;8.57;;;6.23;;
15061;SDS011;7630;50.306;8.566;2022-12-28T09:29:30;8.27;;;7.07;;
15061;SDS011;7630;50.306;8.566;2022-12-28T09:33:31;7.27;;;6.00;;
15061;SDS011;7630;50.306;8.566;2022-12-28T09:37:53;7.73;;;6.00;;
15061;SDS011;7630;50.306;8.566;2022-12-28T09:41:59;6.57;;;6.07;;
15061;SDS011;7630;50.306;8.566;2022-12-28T09:45:59;6.03;;;5.53;;
15061;SDS011;7630;50.306;8.566;2022-12-28T09:50:12;9.30;;;6.37;;
15061;SDS011;7630;50.306;8.566;2022-12-28T09:54:14;8.83;;;5.53;;
15061;SDS011;7630;50.306;8.566;2022-12-28T09:58:15;4.17;;;3.33;;
15061;SDS011;7630;50.306;8.566;2022-12-28T10:02:18;3.87;;;3.43;;
15061;SDS011;7630;50.306;8.566;2022-12-28T10:06:29;11.83;;;4.77;;
15061;SDS011;7630;50.306;8.566;2022-12-28T10:10:34;4.07;;;3.77;;
15061;SDS011;7630;50.306;8.566;2022-12-28T10:14:36;9.07;;;5.47;;
15061;SDS011;7630;50.306;8.566;2022-12-28T10:18:37;7.13;;;5.23;;
15061;SDS011;7630;50.306;8.566;2022-12-28T10:22:40;5.77;;;4.57;;
15061;SDS011;7630;50.306;8.566;2022-12-28T10:26:44;4.60;;;4.20;;
15061;SDS011;7630;50.306;8.566;2022-12-28T10:31:00;6.20;;;3.80;;
15061;SDS011;7630;50.306;8.566;2022-12-28T10:35:04;6.80;;;3.73;;
15061;SDS011;7630;50.306;8.566;2022-12-28T10:39:08;4.87;;;4.37;;
15061;SDS011;7630;50.306;8.566;2022-12-28T10:43:19;6.60;;;5.87;;
15061;SDS011;7630;50.306;8.566;2022-12-28T10:47:27;6.97;;;5.80;;
15061;SDS011;7630;50.306;8.566;2022-12-28T10:51:34;6.93;;;5.40;;
15061;SDS011;7630;50.306;8.566;2022-12-28T10:55:36;7.70;;;5.37;;
15061;SDS011;7630;50.306;8.566;2022-12-28T10:59:38;8.07;;;6.60;;
15061;SDS011;7630;50.306;8.566;2022-12-28T11:03:44;8.87;;;7.53;;
15061;SDS011;7630;50.306;8.566;2022-12-28T11:07:47;6.83;;;6.23;;
15061;SDS011;7630;50.306;8.566;2022-12-28T11:11:50;6.97;;;5.83;;
15061;SDS011;7630;50.306;8.566;2022-12-28T11:15:53;6.37;;;5.80;;
15061;SDS011;7630;50.306;8.566;2022-12-28T11:20:02;6.33;;;5.73;;
15061;SDS011;7630;50.306;8.566;2022-12-28T11:24:05;6.53;;;5.90;;
15061;SDS011;7630;50.306;8.566;2022-12-28T11:28:14;10.30;;;6.30;;
15061;SDS011;7630;50.306;8.566;2022-12-28T11:36:25;5.63;;;5.13;;
15061;SDS011;7630;50.306;8.566;2022-12-28T11:40:44;5.73;;;5.23;;
15061;SDS011;7630;50.306;8.566;2022-12-28T11:44:48;6.50;;;5.90;;
15061;SDS011;7630;50.306;8.566;2022-12-28T11:52:58;5.90;;;5.37;;
15061;SDS011;7630;50.306;8.566;2022-12-28T11:57:01;7.87;;;5.40;;
15061;SDS011;7630;50.306;8.566;2022-12-28T12:01:03;8.13;;;5.50;;
15061;SDS011;7630;50.306;8.566;2022-12-28T12:09:43;8.67;;;5.83;;
15061;SDS011;7630;50.306;8.566;2022-12-28T12:13:43;6.60;;;5.83;;
15061;SDS011;7630;50.306;8.566;2022-12-28T12:17:49;9.23;;;6.87;;
15061;SDS011;7630;50.306;8.566;2022-12-28T12:21:58;8.27;;;6.30;;
15061;SDS011;7630;50.306;8.566;2022-12-28T12:30:42;6.17;;;5.50;;
15061;SDS011;7630;50.306;8.566;2022-12-28T12:56:27;4.63;;;3.47;;
15061;SDS011;7630;50.306;8.566;2022-12-28T13:05:17;6.83;;;3.97;;
15061;SDS011;7630;50.306;8.566;2022-12-28T13:09:21;4.17;;;3.83;;
15061;SDS011;7630;50.306;8.566;2022-12-28T13:17:33;4.10;;;3.70;;
15061;SDS011;7630;50.306;8.566;2022-12-28T13:21:39;4.70;;;4.40;;
15061;SDS011;7630;50.306;8.566;2022-12-28T13:25:46;4.67;;;4.27;;
15061;SDS011;7630;50.306;8.566;2022-12-28T13:29:51;6.60;;;4.97;;
15061;SDS011;7630;50.306;8.566;2022-12-28T13:33:58;6.20;;;4.97;;
15061;SDS011;7630;50.306;8.566;2022-12-28T13:46:30;5.43;;;5.03;;
15061;SDS011;7630;50.306;8.566;2022-12-28T13:50:32;5.10;;;4.03;;
15061;SDS011;7630;50.306;8.566;2022-12-28T13:54:36;4.43;;;4.00;;
15061;SDS011;7630;50.306;8.566;2022-12-28T13:58:39;4.57;;;4.17;;
15061;SDS011;7630;50.306;8.566;2022-12-28T14:02:56;5.00;;;4.50;;
15061;SDS011;7630;50.306;8.566;2022-12-28T14:06:58;4.47;;;4.07;;
15061;SDS011;7630;50.306;8.566;2022-12-28T14:11:00;5.53;;;4.60;;
15061;SDS011;7630;50.306;8.566;2022-12-28T14:15:03;5.07;;;4.63;;
15061;SDS011;7630;50.306;8.566;2022-12-28T14:19:05;5.23;;;4.60;;
15061;SDS011;7630;50.306;8.566;2022-12-28T14:27:27;5.23;;;4.83;;
15061;SDS011;7630;50.306;8.566;2022-12-28T14:31:29;4.60;;;4.17;;
15061;SDS011;7630;50.306;8.566;2022-12-28T14:35:32;5.53;;;5.03;;
15061;SDS011;7630;50.306;8.566;2022-12-28T14:39:34;7.13;;;5.03;;
15061;SDS011;7630;50.306;8.566;2022-12-28T14:43:37;5.90;;;5.40;;
15061;SDS011;7630;50.306;8.566;2022-12-28T14:51:45;5.67;;;5.10;;
15061;SDS011;7630;50.306;8.566;2022-12-28T15:00:06;5.77;;;5.23;;
15061;SDS011;7630;50.306;8.566;2022-12-28T15:04:23;5.07;;;4.57;;
15061;SDS011;7630;50.306;8.566;2022-12-28T15:08:25;6.20;;;4.90;;
15061;SDS011;7630;50.306;8.566;2022-12-28T15:12:27;5.47;;;4.97;;
15061;SDS011;7630;50.306;8.566;2022-12-28T15:16:28;7.70;;;5.30;;
15061;SDS011;7630;50.306;8.566;2022-12-28T15:20:29;7.90;;;5.97;;
15061;SDS011;7630;50.306;8.566;2022-12-28T15:24:30;7.73;;;5.13;;
15061;SDS011;7630;50.306;8.566;2022-12-28T15:28:33;7.43;;;5.70;;
15061;SDS011;7630;50.306;8.566;2022-12-28T15:32:35;6.70;;;5.30;;
15061;SDS011;7630;50.306;8.566;2022-12-28T15:36:36;5.50;;;5.00;;
15061;SDS011;7630;50.306;8.566;2022-12-28T15:40:38;9.77;;;6.93;;
15061;SDS011;7630;50.306;8.566;2022-12-28T15:44:39;7.03;;;6.40;;
15061;SDS011;7630;50.306;8.566;2022-12-28T15:48:40;7.40;;;6.70;;
15061;SDS011;7630;50.306;8.566;2022-12-28T15:52:43;6.57;;;5.87;;
15061;SDS011;7630;50.306;8.566;2022-12-28T15:56:50;8.53;;;6.17;;
15061;SDS011;7630;50.306;8.566;2022-12-28T16:00:51;7.50;;;6.27;;
15061;SDS011;7630;50.306;8.566;2022-12-28T16:04:52;6.17;;;5.67;;
15061;SDS011;7630;50.306;8.566;2022-12-28T16:08:54;6.27;;;5.17;;
15061;SDS011;7630;50.306;8.566;2022-12-28T16:12:56;5.83;;;5.33;;
15061;SDS011;7630;50.306;8.566;2022-12-28T16:16:57;7.10;;;6.30;;
15061;SDS011;7630;50.306;8.566;2022-12-28T16:21:00;8.87;;;6.97;;
15061;SDS011;7630;50.306;8.566;2022-12-28T16:25:02;6.43;;;5.83;;
15061;SDS011;7630;50.306;8.566;2022-12-28T16:29:03;6.93;;;6.33;;
15061;SDS011;7630;50.306;8.566;2022-12-28T16:33:05;7.45;;;5.92;;
15061;SDS011;7630;50.306;8.566;2022-12-28T16:37:06;7.10;;;6.17;;
15061;SDS011;7630;50.306;8.566;2022-12-28T16:41:07;6.10;;;5.50;;
15061;SDS011;7630;50.306;8.566;2022-12-28T16:45:08;6.77;;;5.77;;
15061;SDS011;7630;50.306;8.566;2022-12-28T16:49:10;5.90;;;5.40;;
15061;SDS011;7630;50.306;8.566;2022-12-28T16:53:11;13.23;;;11.83;;
15061;SDS011;7630;50.306;8.566;2022-12-28T16:57:12;5.77;;;5.33;;
15061;SDS011;7630;50.306;8.566;2022-12-28T17:01:13;6.37;;;5.07;;
15061;SDS011;7630;50.306;8.566;2022-12-28T17:05:15;5.77;;;5.27;;
15061;SDS011;7630;50.306;8.566;2022-12-28T17:09:16;5.87;;;5.37;;
15061;SDS011;7630;50.306;8.566;2022-12-28T17:13:19;7.10;;;6.40;;
15061;SDS011;7630;50.306;8.566;2022-12-28T17:17:20;13.17;;;8.97;;
15061;SDS011;7630;50.306;8.566;2022-12-28T17:21:22;6.20;;;5.05;;
15061;SDS011;7630;50.306;8.566;2022-12-28T17:25:23;13.27;;;6.70;;
15061;SDS011;7630;50.306;8.566;2022-12-28T17:29:24;13.37;;;10.90;;
15061;SDS011;7630;50.306;8.566;2022-12-28T17:33:26;5.90;;;5.30;;
15061;SDS011;7630;50.306;8.566;2022-12-28T17:37:27;7.53;;;6.83;;
15061;SDS011;7630;50.306;8.566;2022-12-28T17:41:28;6.67;;;6.07;;
15061;SDS011;7630;50.306;8.566;2022-12-28T17:45:30;8.73;;;6.33;;
15061;SDS011;7630;50.306;8.566;2022-12-28T17:49:31;6.37;;;5.77;;
15061;SDS011;7630;50.306;8.566;2022-12-28T17:53:32;8.70;;;8.00;;
15061;SDS011;7630;50.306;8.566;2022-12-28T17:57:34;4.53;;;4.13;;
15061;SDS011;7630;50.306;8.566;2022-12-28T18:01:37;5.10;;;4.60;;
15061;SDS011;7630;50.306;8.566;2022-12-28T18:05:38;7.10;;;5.60;;
15061;SDS011;7630;50.306;8.566;2022-12-28T18:09:39;5.00;;;4.50;;
15061;SDS011;7630;50.306;8.566;2022-12-28T18:13:40;7.83;;;7.22;;
15061;SDS011;7630;50.306;8.566;2022-12-28T18:17:43;5.53;;;5.03;;
15061;SDS011;7630;50.306;8.566;2022-12-28T18:21:44;6.33;;;4.50;;
15061;SDS011;7630;50.306;8.566;2022-12-28T18:25:45;9.20;;;5.37;;
15061;SDS011;7630;50.306;8.566;2022-12-28T18:29:46;6.23;;;4.53;;
15061;SDS011;7630;50.306;8.566;2022-12-28T18:33:47;6.00;;;5.00;;
15061;SDS011;7630;50.306;8.566;2022-12-28T18:37:49;6.67;;;5.97;;
15061;SDS011;7630;50.306;8.566;2022-12-28T18:41:51;4.80;;;4.50;;
15061;SDS011;7630;50.306;8.566;2022-12-28T18:49:57;5.13;;;4.30;;
15061;SDS011;7630;50.306;8.566;2022-12-28T18:53:58;5.73;;;5.23;;
15061;SDS011;7630;50.306;8.566;2022-12-28T18:57:59;5.47;;;4.60;;
15061;SDS011;7630;50.306;8.566;2022-12-28T19:02:01;4.60;;;4.20;;
15061;SDS011;7630;50.306;8.566;2022-12-28T19:06:05;6.10;;;4.43;;
15061;SDS011;7630;50.306;8.566;2022-12-28T19:10:08;5.47;;;4.97;;
15061;SDS011;7630;50.306;8.566;2022-12-28T19:14:14;4.83;;;4.43;;
15061;SDS011;7630;50.306;8.566;2022-12-28T19:18:15;4.80;;;4.40;;
15061;SDS011;7630;50.306;8.566;2022-12-28T19:22:17;5.70;;;5.20;;
15061;SDS011;7630;50.306;8.566;2022-12-28T19:26:18;6.10;;;4.60;;
15061;SDS011;7630;50.306;8.566;2022-12-28T19:30:21;5.73;;;4.80;;
15061;SDS011;7630;50.306;8.566;2022-12-28T19:34:22;5.37;;;4.97;;
15061;SDS011;7630;50.306;8.566;2022-12-28T19:38:24;5.73;;;5.23;;
15061;SDS011;7630;50.306;8.566;2022-12-28T19:42:25;5.97;;;5.37;;
15061;SDS011;7630;50.306;8.566;2022-12-28T19:46:26;4.97;;;4.47;;
15061;SDS011;7630;50.306;8.566;2022-12-28T19:50:33;5.30;;;4.90;;
15061;SDS011;7630;50.306;8.566;2022-12-28T19:54:34;5.27;;;4.83;;
15061;SDS011;7630;50.306;8.566;2022-12-28T19:58:35;6.00;;;5.47;;
15061;SDS011;7630;50.306;8.566;2022-12-28T20:02:38;6.10;;;4.63;;
15061;SDS011;7630;50.306;8.566;2022-12-28T20:06:43;7.03;;;4.70;;
15061;SDS011;7630;50.306;8.566;2022-12-28T20:10:45;7.67;;;6.13;;
15061;SDS011;7630;50.306;8.566;2022-12-28T20:14:54;7.03;;;6.23;;
15061;SDS011;7630;50.306;8.566;2022-12-28T20:18:55;6.90;;;5.70;;
15061;SDS011;7630;50.306;8.566;2022-12-28T20:22:56;6.67;;;5.00;;
15061;SDS011;7630;50.306;8.566;2022-12-28T20:26:58;8.40;;;5.13;;
15061;SDS011;7630;50.306;8.566;2022-12-28T20:31:01;6.13;;;5.23;;
15061;SDS011;7630;50.306;8.566;2022-12-28T20:35:04;7.17;;;6.53;;
15061;SDS011;7630;50.306;8.566;2022-12-28T20:39:06;4.60;;;4.20;;
15061;SDS011;7630;50.306;8.566;2022-12-28T20:43:07;5.47;;;4.57;;
15061;SDS011;7630;50.306;8.566;2022-12-28T20:47:24;5.60;;;4.87;;
15061;SDS011;7630;50.306;8.566;2022-12-28T20:51:26;6.20;;;4.70;;
15061;SDS011;7630;50.306;8.566;2022-12-28T20:55:27;5.77;;;5.17;;
15061;SDS011;7630;50.306;8.566;2022-12-28T20:59:28;6.00;;;5.50;;
15061;SDS011;7630;50.306;8.566;2022-12-28T21:03:29;6.20;;;5.47;;
15061;SDS011;7630;50.306;8.566;2022-12-28T21:07:32;5.17;;;4.67;;
15061;SDS011;7630;50.306;8.566;2022-12-28T21:11:34;5.27;;;4.77;;
15061;SDS011;7630;50.306;8.566;2022-12-28T21:15:38;5.27;;;4.43;;
15061;SDS011;7630;50.306;8.566;2022-12-28T21:19:40;6.70;;;4.67;;
15061;SDS011;7630;50.306;8.566;2022-12-28T21:23:43;6.70;;;5.43;;
15061;SDS011;7630;50.306;8.566;2022-12-28T21:27:45;5.58;;;5.05;;
15061;SDS011;7630;50.306;8.566;2022-12-28T21:31:47;5.03;;;4.63;;
15061;SDS011;7630;50.306;8.566;2022-12-28T21:40:06;5.53;;;5.03;;
15061;SDS011;7630;50.306;8.566;2022-12-28T21:44:08;6.90;;;6.30;;
15061;SDS011;7630;50.306;8.566;2022-12-28T21:48:14;5.20;;;4.80;;
15061;SDS011;7630;50.306;8.566;2022-12-28T21:52:16;5.23;;;4.63;;
15061;SDS011;7630;50.306;8.566;2022-12-28T21:56:17;6.03;;;5.50;;
15061;SDS011;7630;50.306;8.566;2022-12-28T22:00:19;6.10;;;5.50;;
15061;SDS011;7630;50.306;8.566;2022-12-28T22:04:40;7.07;;;6.47;;
15061;SDS011;7630;50.306;8.566;2022-12-28T22:09:03;9.57;;;6.27;;
15061;SDS011;7630;50.306;8.566;2022-12-28T22:13:23;7.00;;;6.20;;
15061;SDS011;7630;50.306;8.566;2022-12-28T22:17:24;11.30;;;8.03;;
15061;SDS011;7630;50.306;8.566;2022-12-28T22:21:25;8.90;;;7.90;;
15061;SDS011;7630;50.306;8.566;2022-12-28T22:25:27;7.43;;;6.83;;
15061;SDS011;7630;50.306;8.566;2022-12-28T22:29:29;7.50;;;6.87;;
15061;SDS011;7630;50.306;8.566;2022-12-28T22:33:30;8.20;;;6.70;;
15061;SDS011;7630;50.306;8.566;2022-12-28T22:37:33;7.37;;;6.67;;
15061;SDS011;7630;50.306;8.566;2022-12-28T22:41:36;7.87;;;7.07;;
15061;SDS011;7630;50.306;8.566;2022-12-28T22:45:40;7.53;;;6.83;;
15061;SDS011;7630;50.306;8.566;2022-12-28T22:49:41;7.78;;;7.08;;
15061;SDS011;7630;50.306;8.566;2022-12-28T22:53:42;6.80;;;6.20;;
15061;SDS011;7630;50.306;8.566;2022-12-28T22:57:44;7.58;;;6.85;;
15061;SDS011;7630;50.306;8.566;2022-12-28T23:01:46;7.23;;;6.50;;
15061;SDS011;7630;50.306;8.566;2022-12-28T23:05:49;6.67;;;6.07;;
15061;SDS011;7630;50.306;8.566;2022-12-28T23:09:52;6.63;;;5.80;;
15061;SDS011;7630;50.306;8.566;2022-12-28T23:13:56;6.80;;;5.40;;
15061;SDS011;7630;50.306;8.566;2022-12-28T23:17:59;5.57;;;4.97;;
15061;SDS011;7630;50.306;8.566;2022-12-28T23:22:03;5.20;;;4.70;;
15061;SDS011;7630;50.306;8.566;2022-12-28T23:26:23;7.17;;;4.67;;
15061;SDS011;7630;50.306;8.566;2022-12-28T23:30:45;4.43;;;4.03;;
15061;SDS011;7630;50.306;8.566;2022-12-28T23:34:48;3.90;;;3.50;;
15061;SDS011;7630;50.306;8.566;2022-12-28T23:38:49;4.57;;;3.90;;
15061;SDS011;7630;50.306;8.566;2022-12-28T23:42:50;6.20;;;4.40;;
15061;SDS011;7630;50.306;8.566;2022-12-28T23:46:54;4.57;;;4.27;;
15061;SDS011;7630;50.306;8.566;2022-12-28T23:50:57;5.13;;;4.30;;
15061;SDS011;7630;50.306;8.566;2022-12-28T23:55:00;4.33;;;3.93;;
15061;SDS011;7630;50.306;8.566;2022-12-28T23:59:02;5.00;;;4.60;;
